Ted Stevens Anchorage International Airport
PANC : rendu visible

Aérodrome :











RETROUVEZ-NOUS SUR...

 
LOGIN :

S'inscrire | Disclaimer

   EN    FR    IT 

 









Légende :    VFR   VFR Marginal   IFR   IFR Intensif   IFR Très Intensif
Visi : 
Plafond : 
>= 8 km
>= 3000ft
5 à 8 km
1000 à 3000 ft
1500m à 5 km
500 à 1000 ft
800 à 1500m
200 à 500 ft
< 800m
< 200 ft
Symboles :   Orages  Brouillard  Fortes neiges  Fortes précipitations  Vent > 20 kt







- Altitude de l'aérodrome : 152 ft
- Code IATA : ANC


PANC - Ted Stevens Anchorage International

DERNIER METAR :
  • 260953Z 00000KT 10SM FEW250 02/M01 A3014 RMK AO2 SLP207 T00171011

METARs EXPIRÉS :
  • 260853Z 00000KT 10SM FEW250 01/M02 A3014 RMK AO2 SLP210 T00061017 400890006 58006
  • 260753Z 25003KT 10SM CLR 02/M01 A3015 RMK AO2 SLP212 T00221006

TAF PANC
Valide du 26 à 06h jusqu'au 27 à 12h UTC


260531Z 2606/2712 VRB06KT P6SM SCT060 OVC180
FM261200 34004KT P6SM VCFG SCT002 BKN060
FM262000 VRB05KT P6SM OVC070
FIR PAZA / Amérique du Nord



MET'MAP, la Météo Aéronautique d'un coup d'oeil ! - Copyright ORBIFLY Décembre 2007 - Disclaimer

ORBIFLY MET'MAP TEAM :

Programmation & Développement : Alexandra Zaïnal
Conception & Développement : Baudouin d'Aumeries
Co-Programmation & Développement : Marc-Olivier Méhu
Soutien technique & logistique : Manuel Goepfert

Contact : metmap@orbifly.com




SOURCES & CREDITS :

   NOAA       Earth
Advisory